createdAt,value
2018-12-11T00:00:46.954Z,1011.83
2018-12-11T00:01:47.291Z,1011.68
2018-12-11T00:02:47.579Z,1011.76
2018-12-11T00:03:48.051Z,1011.73
2018-12-11T00:04:48.745Z,1011.69
2018-12-11T00:05:48.886Z,1011.72
2018-12-11T00:06:49.008Z,1011.72
2018-12-11T00:07:49.143Z,1011.79
2018-12-11T00:08:49.248Z,1011.76
2018-12-11T00:09:49.416Z,1011.79
2018-12-11T00:10:49.512Z,1011.77
2018-12-11T00:11:49.651Z,1011.77
2018-12-11T00:12:49.837Z,1011.74
2018-12-11T00:13:49.966Z,1011.66
2018-12-11T00:14:50.115Z,1011.77
2018-12-11T00:15:50.286Z,1011.88
2018-12-11T00:16:50.476Z,1011.76
2018-12-11T00:17:50.664Z,1011.76
2018-12-11T00:18:50.781Z,1011.79
2018-12-11T00:23:51.648Z,1011.80
2018-12-11T00:24:51.738Z,1011.76
2018-12-11T00:25:51.846Z,1011.77
2018-12-11T00:26:51.967Z,1011.79
2018-12-11T00:27:52.046Z,1011.72
2018-12-11T00:28:52.133Z,1011.77
2018-12-11T00:29:52.213Z,1011.75
2018-12-11T00:30:52.276Z,1011.84
2018-12-11T00:31:52.712Z,1011.74
2018-12-11T00:32:52.786Z,1011.69
2018-12-11T00:33:52.837Z,1011.71
2018-12-11T00:34:53.070Z,1011.74
2018-12-11T00:35:53.128Z,1011.72
2018-12-11T00:36:53.182Z,1011.79
2018-12-11T00:37:53.255Z,1011.72
2018-12-11T00:38:53.357Z,1011.65
2018-12-11T00:39:53.427Z,1011.64
2018-12-11T00:40:53.480Z,1011.67
2018-12-11T00:41:53.547Z,1011.70
2018-12-11T00:42:53.629Z,1011.70
2018-12-11T00:43:53.691Z,1011.64
2018-12-11T00:44:53.821Z,1011.71
2018-12-11T00:45:53.835Z,1011.71
2018-12-11T00:46:53.890Z,1011.68
2018-12-11T00:47:53.978Z,1011.65
2018-12-11T00:48:53.999Z,1011.72
2018-12-11T00:49:54.074Z,1011.72
2018-12-11T00:50:54.140Z,1011.74
2018-12-11T00:51:54.141Z,1011.65
2018-12-11T00:52:54.499Z,1011.68
2018-12-11T00:53:54.863Z,1011.71
2018-12-11T00:54:55.127Z,1011.63
2018-12-11T00:55:55.394Z,1011.60
2018-12-11T00:56:55.825Z,1011.58
2018-12-11T00:57:56.086Z,1011.61
2018-12-11T00:58:56.335Z,1011.64
2018-12-11T00:59:56.710Z,1011.64
2018-12-11T01:00:56.963Z,1011.61
2018-12-11T01:01:57.219Z,1011.62
2018-12-11T01:02:57.474Z,1011.60
2018-12-11T01:03:57.718Z,1011.73
2018-12-11T01:04:57.973Z,1011.61
2018-12-11T01:05:58.225Z,1011.68
2018-12-11T01:06:58.481Z,1011.57
2018-12-11T01:07:58.977Z,1011.69
2018-12-11T01:08:59.294Z,1011.64
2018-12-11T01:09:59.645Z,1011.65
2018-12-11T01:10:59.994Z,1011.68
2018-12-11T01:12:00.255Z,1011.65
2018-12-11T01:13:00.492Z,1011.64
2018-12-11T01:14:00.833Z,1011.58
2018-12-11T01:15:01.308Z,1011.70
2018-12-11T01:16:01.582Z,1011.63
2018-12-11T01:17:01.560Z,1011.65
2018-12-11T01:18:01.683Z,1011.64
2018-12-11T01:19:01.733Z,1011.73
2018-12-11T01:20:01.659Z,1011.74
2018-12-11T01:21:01.866Z,1011.72
2018-12-11T01:22:02.412Z,1011.69
2018-12-11T01:23:02.465Z,1011.70
2018-12-11T01:24:02.561Z,1011.76
2018-12-11T01:25:02.324Z,1011.75
2018-12-11T01:26:03.100Z,1011.79
2018-12-11T01:27:03.213Z,1011.78
2018-12-11T01:29:03.318Z,1011.87
2018-12-11T01:30:03.220Z,1011.90
2018-12-11T01:31:03.741Z,1011.91
2018-12-11T01:32:03.881Z,1011.85
2018-12-11T01:33:04.001Z,1011.83
2018-12-11T01:34:04.010Z,1011.89
2018-12-11T01:35:04.123Z,1011.82
2018-12-11T01:36:04.219Z,1011.90
2018-12-11T01:37:04.309Z,1011.75
2018-12-11T01:38:04.409Z,1011.78
2018-12-11T01:39:04.519Z,1011.82
2018-12-11T01:40:04.621Z,1011.85
2018-12-11T01:41:04.750Z,1011.91
2018-12-11T01:42:04.840Z,1011.91
2018-12-11T01:43:04.985Z,1011.99
2018-12-11T01:44:05.013Z,1011.96
2018-12-11T01:45:05.100Z,1011.98
2018-12-11T01:46:05.136Z,1011.93
2018-12-11T01:47:05.325Z,1012.01
2018-12-11T01:48:05.401Z,1012.02
2018-12-11T01:49:05.494Z,1011.93
2018-12-11T01:50:05.625Z,1011.99
2018-12-11T01:52:05.743Z,1012.03
2018-12-11T01:53:05.846Z,1012.07
2018-12-11T01:54:05.982Z,1012.09
2018-12-11T01:55:06.093Z,1012.07
2018-12-11T01:56:06.197Z,1012.04
2018-12-11T01:57:06.299Z,1012.12
2018-12-11T01:58:06.345Z,1012.01
2018-12-11T01:59:06.433Z,1012.02
2018-12-11T02:00:06.522Z,1012.02
2018-12-11T02:01:06.852Z,1012.04
2018-12-11T02:02:07.000Z,1011.99
2018-12-11T02:03:07.093Z,1012.05
2018-12-11T02:04:07.174Z,1012.11
2018-12-11T02:05:07.181Z,1011.96
2018-12-11T02:06:07.246Z,1012.00
2018-12-11T02:07:07.320Z,1012.01
2018-12-11T02:08:07.424Z,1012.03
2018-12-11T02:09:07.475Z,1011.96
2018-12-11T02:10:07.293Z,1012.00
2018-12-11T02:11:07.846Z,1011.99
2018-12-11T02:12:07.844Z,1011.92
2018-12-11T02:14:08.302Z,1012.04
2018-12-11T02:15:08.530Z,1011.97
2018-12-11T02:16:09.423Z,1012.04
2018-12-11T02:17:09.116Z,1011.94
2018-12-11T02:18:09.378Z,1011.98
2018-12-11T02:19:09.799Z,1012.06
2018-12-11T02:20:10.062Z,1012.00
2018-12-11T02:21:10.314Z,1011.99
2018-12-11T02:22:10.594Z,1012.04
2018-12-11T02:23:10.861Z,1012.04
2018-12-11T02:24:11.121Z,1011.94
2018-12-11T02:25:11.386Z,1012.04
2018-12-11T02:26:11.630Z,1012.06
2018-12-11T02:27:11.904Z,1012.02
2018-12-11T02:28:12.175Z,1012.06
2018-12-11T02:29:12.422Z,1011.98
2018-12-11T02:30:12.684Z,1012.04
2018-12-11T02:31:12.938Z,1012.01
2018-12-11T02:32:13.352Z,1011.94
2018-12-11T02:33:13.604Z,1011.93
2018-12-11T02:34:14.052Z,1011.90
2018-12-11T02:35:14.644Z,1011.94
2018-12-11T02:36:14.509Z,1011.99
2018-12-11T02:37:14.765Z,1011.91
2018-12-11T02:38:15.193Z,1011.91
2018-12-11T02:39:15.435Z,1011.91
2018-12-11T02:40:16.053Z,1011.93
2018-12-11T02:41:15.806Z,1011.95
2018-12-11T02:42:16.076Z,1011.98
2018-12-11T02:43:16.437Z,1012.04
2018-12-11T02:44:16.693Z,1011.96
2018-12-11T02:45:17.009Z,1011.97
2018-12-11T02:46:17.438Z,1012.00
2018-12-11T02:47:17.713Z,1011.97
2018-12-11T02:48:18.137Z,1011.92
2018-12-11T02:50:18.733Z,1012.02
2018-12-11T02:51:18.802Z,1012.02
2018-12-11T02:52:18.880Z,1012.03
2018-12-11T02:53:18.997Z,1012.07
2018-12-11T02:54:19.105Z,1012.07
2018-12-11T02:55:19.232Z,1012.03
2018-12-11T02:56:19.346Z,1012.01
2018-12-11T02:57:19.447Z,1011.95
2018-12-11T02:58:19.599Z,1011.98
2018-12-11T02:59:19.759Z,1011.99
2018-12-11T03:00:19.884Z,1011.87
2018-12-11T03:01:20.065Z,1011.96
2018-12-11T03:02:20.194Z,1012.02
2018-12-11T03:03:20.324Z,1012.02
2018-12-11T03:04:20.452Z,1012.05
2018-12-11T03:05:20.609Z,1012.06
2018-12-11T03:06:20.758Z,1012.08
2018-12-11T03:07:20.887Z,1012.03
2018-12-11T03:08:20.976Z,1012.06
2018-12-11T03:09:21.001Z,1011.98
2018-12-11T03:10:21.096Z,1012.07
2018-12-11T03:11:21.133Z,1012.08
2018-12-11T03:12:21.266Z,1012.06
2018-12-11T03:13:21.326Z,1012.10
2018-12-11T03:14:21.370Z,1012.14
2018-12-11T03:15:21.424Z,1012.10
2018-12-11T03:16:21.449Z,1012.02
2018-12-11T03:17:21.478Z,1012.06
2018-12-11T03:18:21.494Z,1012.11
2018-12-11T03:19:21.588Z,1012.06
2018-12-11T03:20:21.664Z,1012.07
2018-12-11T03:21:21.755Z,1012.05
2018-12-11T03:22:21.853Z,1012.02
2018-12-11T03:23:21.931Z,1012.02
2018-12-11T03:24:22.037Z,1012.05
2018-12-11T03:25:22.142Z,1011.98
2018-12-11T03:26:22.200Z,1012.04
2018-12-11T03:27:22.284Z,1011.98
2018-12-11T03:28:22.377Z,1012.03
2018-12-11T03:29:22.418Z,1012.08
2018-12-11T03:30:22.484Z,1012.04
2018-12-11T03:31:22.513Z,1011.98
2018-12-11T03:32:22.616Z,1011.98
2018-12-11T03:33:22.675Z,1011.92
2018-12-11T03:34:22.720Z,1011.97
2018-12-11T03:35:22.785Z,1011.90
2018-12-11T03:37:23.246Z,1011.92
2018-12-11T03:38:23.380Z,1011.92
2018-12-11T03:39:23.476Z,1011.88
2018-12-11T03:40:23.552Z,1011.95
2018-12-11T03:41:23.628Z,1011.94
2018-12-11T03:42:23.723Z,1011.93
2018-12-11T03:43:23.793Z,1011.98
2018-12-11T03:45:23.812Z,1012.03
2018-12-11T03:46:24.526Z,1011.98
2018-12-11T03:47:24.382Z,1012.05
2018-12-11T03:48:24.636Z,1012.03
2018-12-11T03:49:24.933Z,1012.07
2018-12-11T03:50:25.206Z,1012.12
2018-12-11T03:51:25.498Z,1012.07
2018-12-11T03:52:25.768Z,1012.02
2018-12-11T03:53:26.033Z,1012.02
2018-12-11T03:54:26.296Z,1011.91
2018-12-11T03:55:26.696Z,1012.01
2018-12-11T03:56:26.975Z,1011.96
2018-12-11T03:57:27.264Z,1011.99
2018-12-11T03:58:27.531Z,1012.00
2018-12-11T03:59:27.869Z,1011.99
2018-12-11T04:00:28.261Z,1011.92
2018-12-11T04:01:28.552Z,1011.92
2018-12-11T04:02:28.840Z,1011.99
2018-12-11T04:03:29.309Z,1012.03
2018-12-11T04:04:29.582Z,1012.00
2018-12-11T04:05:29.898Z,1011.94
2018-12-11T04:06:30.167Z,1011.84
2018-12-11T04:07:30.444Z,1011.91
2018-12-11T04:08:30.873Z,1011.91
2018-12-11T04:09:31.244Z,1011.98
2018-12-11T04:10:31.559Z,1011.95
2018-12-11T04:11:31.895Z,1011.98
2018-12-11T04:12:32.141Z,1011.96
2018-12-11T04:13:32.447Z,1011.99
2018-12-11T04:14:32.720Z,1011.98
2018-12-11T04:15:33.212Z,1011.87
2018-12-11T04:16:33.847Z,1011.88
2018-12-11T04:17:33.938Z,1011.92
2018-12-11T04:18:34.117Z,1011.87
2018-12-11T04:19:34.290Z,1011.92
2018-12-11T04:20:34.270Z,1011.92
2018-12-11T04:21:34.380Z,1011.89
2018-12-11T04:22:34.550Z,1011.85
2018-12-11T04:23:34.765Z,1011.82
2018-12-11T04:24:34.899Z,1011.85
2018-12-11T04:25:35.087Z,1011.94
2018-12-11T04:26:35.230Z,1011.84
2018-12-11T04:27:35.409Z,1011.93
2018-12-11T04:28:35.551Z,1011.92
2018-12-11T04:30:35.740Z,1011.92
2018-12-11T04:31:35.800Z,1011.89
2018-12-11T04:32:35.934Z,1011.86
2018-12-11T04:33:36.165Z,1011.89
2018-12-11T04:34:36.193Z,1011.97
2018-12-11T04:35:36.307Z,1011.95
2018-12-11T04:36:36.399Z,1012.02
2018-12-11T04:37:36.475Z,1011.99
2018-12-11T04:38:36.534Z,1011.99
2018-12-11T04:39:36.613Z,1012.01
2018-12-11T04:40:36.749Z,1011.97
2018-12-11T04:41:36.883Z,1011.96
2018-12-11T04:42:37.048Z,1011.92
2018-12-11T04:43:37.154Z,1012.02
2018-12-11T04:44:37.270Z,1012.00
2018-12-11T04:45:37.373Z,1012.01
2018-12-11T04:46:37.511Z,1012.01
2018-12-11T04:47:37.695Z,1011.99
2018-12-11T04:48:37.809Z,1011.98
2018-12-11T04:49:37.915Z,1011.92
2018-12-11T04:50:38.023Z,1011.99
2018-12-11T04:51:38.131Z,1012.04
2018-12-11T04:52:38.255Z,1012.02
2018-12-11T04:53:38.385Z,1011.99
2018-12-11T04:54:38.587Z,1012.01
2018-12-11T04:55:38.784Z,1012.03
2018-12-11T04:56:38.983Z,1012.02
2018-12-11T04:57:38.999Z,1012.08
2018-12-11T04:58:39.509Z,1012.09
2018-12-11T04:59:48.664Z,1012.02
2018-12-11T05:00:39.624Z,1011.93
2018-12-11T05:01:40.244Z,1011.92
2018-12-11T05:02:40.047Z,1011.94
2018-12-11T05:03:40.325Z,1011.90
2018-12-11T05:04:40.642Z,1011.94
2018-12-11T05:05:40.983Z,1011.90
2018-12-11T05:06:41.232Z,1011.92
2018-12-11T05:07:41.478Z,1011.91
2018-12-11T05:08:41.822Z,1011.90
2018-12-11T05:09:42.435Z,1011.91
2018-12-11T05:10:42.194Z,1011.98
2018-12-11T05:11:42.584Z,1011.99
2018-12-11T05:12:42.850Z,1011.95
2018-12-11T05:13:43.261Z,1011.96
2018-12-11T05:14:43.534Z,1011.98
2018-12-11T05:15:44.026Z,1011.98
2018-12-11T05:16:44.295Z,1011.96
2018-12-11T05:17:44.586Z,1011.96
2018-12-11T05:18:44.892Z,1011.91
2018-12-11T05:19:45.150Z,1011.91
2018-12-11T05:20:45.451Z,1011.88
2018-12-11T05:21:45.848Z,1011.93
2018-12-11T05:22:46.258Z,1011.93
2018-12-11T05:23:46.524Z,1011.87
2018-12-11T05:24:46.770Z,1011.86
2018-12-11T05:25:47.121Z,1011.88
2018-12-11T05:26:47.594Z,1011.94
2018-12-11T05:27:47.914Z,1011.83
2018-12-11T05:28:48.569Z,1011.93
2018-12-11T05:29:48.647Z,1011.89
2018-12-11T05:30:48.771Z,1011.84
2018-12-11T05:31:48.876Z,1011.92
2018-12-11T05:32:49.056Z,1011.98
2018-12-11T05:33:49.181Z,1011.92
2018-12-11T05:34:49.347Z,1011.87
2018-12-11T05:35:49.430Z,1011.96
2018-12-11T05:36:49.616Z,1011.93
2018-12-11T05:37:49.733Z,1011.95
2018-12-11T05:38:49.839Z,1011.92
2018-12-11T05:39:49.969Z,1011.88
2018-12-11T05:41:50.137Z,1011.87
2018-12-11T05:42:50.268Z,1011.96
2018-12-11T05:43:50.393Z,1011.94
2018-12-11T05:44:50.592Z,1011.92
2018-12-11T05:45:50.716Z,1011.87
2018-12-11T05:46:50.825Z,1011.92
2018-12-11T05:47:50.920Z,1011.93
2018-12-11T05:48:51.136Z,1011.86
2018-12-11T05:49:51.451Z,1011.94
2018-12-11T05:50:51.551Z,1011.89
2018-12-11T05:51:51.663Z,1011.95
2018-12-11T05:52:51.769Z,1012.00
2018-12-11T05:54:51.994Z,1011.95
2018-12-11T05:55:52.292Z,1011.99
2018-12-11T05:56:52.413Z,1012.07
2018-12-11T05:57:52.488Z,1012.07
2018-12-11T05:58:52.601Z,1012.08
2018-12-11T05:59:52.669Z,1012.01
2018-12-11T06:00:52.733Z,1012.03
2018-12-11T06:01:52.844Z,1012.04
2018-12-11T06:02:52.952Z,1011.96
2018-12-11T06:03:53.027Z,1012.09
2018-12-11T06:04:53.039Z,1012.06
2018-12-11T06:05:53.181Z,1012.08
2018-12-11T06:06:53.288Z,1012.07
2018-12-11T06:07:53.371Z,1011.93
2018-12-11T06:08:53.520Z,1012.03
2018-12-11T06:09:53.621Z,1011.99
2018-12-11T06:10:53.826Z,1012.03
2018-12-11T06:11:53.940Z,1011.99
2018-12-11T06:12:54.048Z,1012.03
2018-12-11T06:13:54.130Z,1011.96
2018-12-11T06:14:54.090Z,1012.05
2018-12-11T06:15:54.356Z,1011.98
2018-12-11T06:16:54.793Z,1011.98
2018-12-11T06:17:55.175Z,1012.03
2018-12-11T06:18:55.462Z,1011.97
2018-12-11T06:19:55.835Z,1012.02
2018-12-11T06:20:56.353Z,1012.04
2018-12-11T06:21:56.436Z,1012.01
2018-12-11T06:22:56.524Z,1012.00
2018-12-11T06:23:56.786Z,1011.99
2018-12-11T06:24:57.058Z,1012.03
2018-12-11T06:25:57.315Z,1012.05
2018-12-11T06:26:57.827Z,1012.02
2018-12-11T06:27:57.644Z,1011.99
2018-12-11T06:28:57.920Z,1012.10
2018-12-11T06:29:58.393Z,1012.03
2018-12-11T06:30:58.746Z,1012.07
2018-12-11T06:31:59.018Z,1012.06
2018-12-11T06:32:59.404Z,1012.00
2018-12-11T06:33:59.861Z,1012.00
2018-12-11T06:35:00.118Z,1011.99
2018-12-11T06:36:00.688Z,1012.07
2018-12-11T06:37:00.484Z,1012.08
2018-12-11T06:38:01.084Z,1012.01
2018-12-11T06:39:01.103Z,1012.03
2018-12-11T06:40:01.074Z,1011.98
2018-12-11T06:41:01.287Z,1012.02
2018-12-11T06:42:01.625Z,1011.97
2018-12-11T06:43:01.902Z,1011.97
2018-12-11T06:44:02.552Z,1012.01
2018-12-11T06:45:02.669Z,1012.09
2018-12-11T06:46:02.664Z,1012.00
2018-12-11T06:47:02.775Z,1012.10
2018-12-11T06:48:02.884Z,1012.01
2018-12-11T06:49:02.956Z,1012.11
2018-12-11T06:50:03.067Z,1012.08
2018-12-11T06:51:03.492Z,1012.07
2018-12-11T06:52:03.628Z,1012.06
2018-12-11T06:53:03.746Z,1012.07
2018-12-11T06:54:03.855Z,1012.20
2018-12-11T06:55:03.971Z,1012.06
2018-12-11T06:56:04.099Z,1012.08
2018-12-11T06:57:04.175Z,1012.01
2018-12-11T06:58:04.284Z,1012.09
2018-12-11T06:59:04.392Z,1012.08
2018-12-11T07:00:04.517Z,1012.10
2018-12-11T07:01:04.774Z,1012.10
2018-12-11T07:02:04.929Z,1012.14
2018-12-11T07:03:05.042Z,1012.12
2018-12-11T07:04:05.171Z,1012.17
2018-12-11T07:05:05.297Z,1012.14
2018-12-11T07:07:05.507Z,1012.19
2018-12-11T07:08:05.631Z,1012.19
2018-12-11T07:09:05.797Z,1012.14
2018-12-11T07:10:05.905Z,1012.19
2018-12-11T07:11:06.075Z,1012.16
2018-12-11T07:12:06.144Z,1012.15
2018-12-11T07:13:06.352Z,1012.13
2018-12-11T07:14:06.484Z,1012.10
2018-12-11T07:15:06.537Z,1012.18
2018-12-11T07:16:06.668Z,1012.20
2018-12-11T07:17:06.829Z,1012.30
2018-12-11T07:18:06.984Z,1012.26
2018-12-11T07:19:07.090Z,1012.22
2018-12-11T07:20:07.198Z,1012.18
2018-12-11T07:21:07.317Z,1012.23
2018-12-11T07:22:07.432Z,1012.23
2018-12-11T07:23:07.287Z,1012.26
2018-12-11T07:24:07.940Z,1012.33
2018-12-11T07:25:08.057Z,1012.33
2018-12-11T07:26:08.175Z,1012.24
2018-12-11T07:27:08.071Z,1012.35
2018-12-11T07:28:08.677Z,1012.32
2018-12-11T07:29:08.824Z,1012.29
2018-12-11T07:30:08.904Z,1012.34
2018-12-11T07:31:08.992Z,1012.44
2018-12-11T07:32:09.298Z,1012.32
2018-12-11T07:33:09.527Z,1012.37
2018-12-11T07:34:09.254Z,1012.40
2018-12-11T07:35:09.557Z,1012.49
2018-12-11T07:36:09.932Z,1012.50
2018-12-11T07:37:10.202Z,1012.39
2018-12-11T07:38:10.470Z,1012.44
2018-12-11T07:39:10.722Z,1012.43
2018-12-11T07:40:11.223Z,1012.33
2018-12-11T07:41:11.281Z,1012.47
2018-12-11T07:42:11.267Z,1012.47
2018-12-11T07:43:11.525Z,1012.49
2018-12-11T07:44:11.779Z,1012.55
2018-12-11T07:45:12.251Z,1012.50
2018-12-11T07:46:12.561Z,1012.45
2018-12-11T07:47:12.831Z,1012.47
2018-12-11T07:48:13.100Z,1012.51
2018-12-11T07:49:13.631Z,1012.49
2018-12-11T07:50:13.450Z,1012.48
2018-12-11T07:51:13.757Z,1012.49
2018-12-11T07:52:14.017Z,1012.49
2018-12-11T07:53:14.316Z,1012.55
2018-12-11T07:54:14.571Z,1012.54
2018-12-11T07:55:15.168Z,1012.56
2018-12-11T07:56:15.146Z,1012.46
2018-12-11T07:57:15.409Z,1012.47
2018-12-11T07:58:15.917Z,1012.44
2018-12-11T07:59:16.445Z,1012.51
2018-12-11T08:00:16.196Z,1012.56
2018-12-11T08:01:16.507Z,1012.54
2018-12-11T08:02:16.769Z,1012.53
2018-12-11T08:03:17.289Z,1012.52
2018-12-11T08:04:17.260Z,1012.48
2018-12-11T08:05:17.510Z,1012.60
2018-12-11T08:06:17.762Z,1012.52
2018-12-11T08:07:18.212Z,1012.57
2018-12-11T08:08:18.795Z,1012.57
2018-12-11T08:09:18.922Z,1012.57
2018-12-11T08:10:19.113Z,1012.52
2018-12-11T08:11:19.224Z,1012.51
2018-12-11T08:12:19.364Z,1012.49
2018-12-11T08:13:19.521Z,1012.54
2018-12-11T08:14:19.653Z,1012.48
2018-12-11T08:15:19.797Z,1012.47
2018-12-11T08:16:19.969Z,1012.43
2018-12-11T08:17:20.103Z,1012.46
2018-12-11T08:18:20.270Z,1012.45
2018-12-11T08:19:20.431Z,1012.48
2018-12-11T08:20:20.563Z,1012.47
2018-12-11T08:21:20.736Z,1012.45
2018-12-11T08:22:20.857Z,1012.46
2018-12-11T08:23:20.978Z,1012.45
2018-12-11T08:24:21.021Z,1012.45
2018-12-11T08:25:21.107Z,1012.48
2018-12-11T08:26:21.262Z,1012.50
2018-12-11T08:27:21.326Z,1012.51
2018-12-11T08:28:21.414Z,1012.52
2018-12-11T08:29:21.504Z,1012.53
2018-12-11T08:30:21.605Z,1012.54
2018-12-11T08:31:21.815Z,1012.52
2018-12-11T08:32:21.901Z,1012.53
2018-12-11T08:33:22.003Z,1012.53
2018-12-11T08:34:22.118Z,1012.52
2018-12-11T08:35:22.231Z,1012.51
2018-12-11T08:36:22.370Z,1012.52
2018-12-11T08:37:22.486Z,1012.51
2018-12-11T08:38:22.572Z,1012.51
2018-12-11T08:39:22.636Z,1012.53
2018-12-11T08:40:22.624Z,1012.52
2018-12-11T08:41:22.770Z,1012.54
2018-12-11T08:42:22.851Z,1012.53
2018-12-11T08:43:22.912Z,1012.55
2018-12-11T08:44:22.977Z,1012.60
2018-12-11T08:45:23.040Z,1012.57
2018-12-11T08:46:25.844Z,1012.55
2018-12-11T08:47:23.481Z,1012.56
2018-12-11T08:48:23.532Z,1012.56
2018-12-11T08:49:23.628Z,1012.56
2018-12-11T08:50:23.762Z,1012.55
2018-12-11T08:51:23.855Z,1012.57
2018-12-11T08:52:24.066Z,1012.59
2018-12-11T08:53:24.138Z,1012.58
2018-12-11T08:54:24.332Z,1012.58
2018-12-11T08:55:24.385Z,1012.59
2018-12-11T08:56:24.360Z,1012.60
2018-12-11T08:57:24.651Z,1012.56
2018-12-11T08:58:25.036Z,1012.56
2018-12-11T08:59:25.335Z,1012.56
2018-12-11T09:00:25.597Z,1012.60
2018-12-11T09:01:25.916Z,1012.62
2018-12-11T09:02:26.427Z,1012.61
2018-12-11T09:03:26.221Z,1012.62
2018-12-11T09:04:26.486Z,1012.63
2018-12-11T09:05:26.791Z,1012.64
2018-12-11T09:06:27.181Z,1012.68
2018-12-11T09:07:27.502Z,1012.64
2018-12-11T09:08:27.779Z,1012.72
2018-12-11T09:09:28.178Z,1012.71
2018-12-11T09:10:28.524Z,1012.72
2018-12-11T09:11:28.910Z,1012.71
2018-12-11T09:12:31.238Z,1012.70
2018-12-11T09:13:31.571Z,1012.70
2018-12-11T09:14:31.768Z,1012.68
2018-12-11T09:15:32.646Z,1012.69
2018-12-11T09:16:32.571Z,1012.68
2018-12-11T09:17:30.862Z,1012.67
2018-12-11T09:18:31.357Z,1012.67
2018-12-11T09:19:31.636Z,1012.67
2018-12-11T09:20:32.088Z,1012.67
2018-12-11T09:21:32.421Z,1012.69
2018-12-11T09:22:32.682Z,1012.69
2018-12-11T09:23:33.092Z,1012.70
2018-12-11T09:24:33.691Z,1012.70
2018-12-11T09:25:33.826Z,1012.71
2018-12-11T09:26:33.912Z,1012.68
2018-12-11T09:27:34.053Z,1012.71
2018-12-11T09:28:34.227Z,1012.72
2018-12-11T09:29:34.427Z,1012.74
2018-12-11T09:30:34.550Z,1012.77
2018-12-11T09:31:34.678Z,1012.78
2018-12-11T09:32:34.925Z,1012.79
2018-12-11T09:33:35.049Z,1012.77
2018-12-11T09:34:35.228Z,1012.78
2018-12-11T09:35:35.372Z,1012.76
2018-12-11T09:36:35.522Z,1012.75
2018-12-11T09:37:35.706Z,1012.74
2018-12-11T09:38:35.815Z,1012.73
2018-12-11T09:39:35.928Z,1012.75
2018-12-11T09:40:36.021Z,1012.74
2018-12-11T09:41:36.084Z,1012.75
2018-12-11T09:42:36.204Z,1012.77
2018-12-11T09:43:36.304Z,1012.76
2018-12-11T09:44:36.410Z,1012.80
2018-12-11T09:45:36.463Z,1012.81
2018-12-11T09:46:36.571Z,1012.83
2018-12-11T09:47:36.640Z,1012.82
2018-12-11T09:48:36.786Z,1012.83
2018-12-11T09:49:36.919Z,1012.84
2018-12-11T09:50:37.031Z,1012.85
2018-12-11T09:51:37.115Z,1012.82
2018-12-11T09:52:37.234Z,1012.81
2018-12-11T09:53:37.307Z,1012.80
2018-12-11T09:54:37.411Z,1012.79
2018-12-11T09:55:37.473Z,1012.78
2018-12-11T09:56:37.605Z,1012.79
2018-12-11T09:57:37.766Z,1012.80
2018-12-11T09:58:37.878Z,1012.79
2018-12-11T09:59:37.953Z,1012.78
2018-12-11T10:00:38.017Z,1012.77
2018-12-11T10:01:38.101Z,1012.76
2018-12-11T10:02:38.286Z,1012.75
2018-12-11T10:03:38.488Z,1012.75
2018-12-11T10:04:38.504Z,1012.75
2018-12-11T10:05:38.736Z,1012.76
2018-12-11T10:06:38.894Z,1012.76
2018-12-11T10:07:38.884Z,1012.74
2018-12-11T10:08:38.879Z,1012.74
2018-12-11T10:09:39.292Z,1012.74
2018-12-11T10:10:39.657Z,1012.74
2018-12-11T10:11:40.015Z,1012.74
2018-12-11T10:12:40.272Z,1012.73
2018-12-11T10:13:40.599Z,1012.75
2018-12-11T10:14:40.872Z,1012.74
2018-12-11T10:15:41.138Z,1012.73
2018-12-11T10:16:41.399Z,1012.74
2018-12-11T10:17:41.712Z,1012.74
2018-12-11T10:18:42.004Z,1012.73
2018-12-11T10:19:42.476Z,1012.73
2018-12-11T10:20:42.776Z,1012.70
2018-12-11T10:21:43.058Z,1012.68
2018-12-11T10:22:43.346Z,1012.68
2018-12-11T10:23:43.717Z,1012.68
2018-12-11T10:24:44.000Z,1012.64
2018-12-11T10:25:44.284Z,1012.64
2018-12-11T10:26:44.548Z,1012.63
2018-12-11T10:27:44.919Z,1012.64
2018-12-11T10:28:45.189Z,1012.65
2018-12-11T10:29:45.467Z,1012.66
2018-12-11T10:30:45.754Z,1012.66
2018-12-11T10:31:45.953Z,1012.64
2018-12-11T10:32:46.266Z,1012.63
2018-12-11T10:33:46.599Z,1012.62
2018-12-11T10:34:46.774Z,1012.63
2018-12-11T10:35:47.044Z,1012.64
2018-12-11T10:36:47.373Z,1012.66
2018-12-11T10:37:47.915Z,1012.66
2018-12-11T10:38:47.687Z,1012.67
2018-12-11T10:39:48.007Z,1012.67
2018-12-11T10:40:48.600Z,1012.68
2018-12-11T10:41:48.773Z,1012.67
2018-12-11T10:42:48.981Z,1012.67
2018-12-11T10:43:49.116Z,1012.67
2018-12-11T10:44:49.295Z,1012.66
2018-12-11T10:45:49.523Z,1012.66
2018-12-11T10:46:49.663Z,1012.69
2018-12-11T10:47:49.843Z,1012.67
2018-12-11T10:48:50.188Z,1012.66
2018-12-11T10:49:50.506Z,1012.66
2018-12-11T10:50:50.737Z,1012.66
2018-12-11T10:51:50.822Z,1012.65
2018-12-11T10:52:50.998Z,1012.65
2018-12-11T10:53:51.102Z,1012.64
2018-12-11T10:54:51.105Z,1012.63
2018-12-11T10:55:51.280Z,1012.61
2018-12-11T10:56:51.363Z,1012.61
2018-12-11T10:57:51.460Z,1012.61
2018-12-11T10:58:51.557Z,1012.63
2018-12-11T10:59:51.689Z,1012.61
2018-12-11T11:00:51.819Z,1012.60
2018-12-11T11:01:52.089Z,1012.58
2018-12-11T11:02:52.178Z,1012.59
2018-12-11T11:03:52.480Z,1012.58
2018-12-11T11:04:52.680Z,1012.55
2018-12-11T11:05:52.747Z,1012.53
2018-12-11T11:06:52.856Z,1012.53
2018-12-11T11:07:52.934Z,1012.52
2018-12-11T11:08:53.014Z,1012.49
2018-12-11T11:09:53.173Z,1012.49
2018-12-11T11:10:53.252Z,1012.47
2018-12-11T11:11:53.484Z,1012.44
2018-12-11T11:12:53.837Z,1012.43
2018-12-11T11:13:53.904Z,1012.43
2018-12-11T11:14:53.972Z,1012.42
2018-12-11T11:15:54.065Z,1012.42
2018-12-11T11:16:54.119Z,1012.42
2018-12-11T11:17:54.077Z,1012.41
2018-12-11T11:18:54.423Z,1012.40
2018-12-11T11:19:54.683Z,1012.38
2018-12-11T11:20:54.936Z,1012.38
2018-12-11T11:21:55.283Z,1012.39
2018-12-11T11:22:55.534Z,1012.38
2018-12-11T11:23:55.967Z,1012.38
2018-12-11T11:24:56.243Z,1012.39
2018-12-11T11:25:56.602Z,1012.37
2018-12-11T11:26:56.989Z,1012.37
2018-12-11T11:27:57.441Z,1012.36
2018-12-11T11:28:57.920Z,1012.37
2018-12-11T11:29:58.261Z,1012.37
2018-12-11T11:30:58.539Z,1012.37
2018-12-11T11:31:58.986Z,1012.35
2018-12-11T11:32:59.338Z,1012.35
2018-12-11T11:34:02.896Z,1012.34
2018-12-11T11:34:59.784Z,1012.33
2018-12-11T11:36:00.088Z,1012.33
2018-12-11T11:37:00.410Z,1012.32
2018-12-11T11:38:01.076Z,1012.30
2018-12-11T11:39:01.204Z,1012.27
2018-12-11T11:40:01.100Z,1012.25
2018-12-11T11:41:01.680Z,1012.22
2018-12-11T11:42:01.801Z,1012.20
2018-12-11T11:43:01.935Z,1012.18
2018-12-11T11:44:01.714Z,1012.17
2018-12-11T11:45:02.303Z,1012.13
2018-12-11T11:46:02.395Z,1012.11
2018-12-11T11:47:02.369Z,1012.11
2018-12-11T11:48:02.703Z,1012.12
2018-12-11T11:49:02.723Z,1012.12
2018-12-11T11:50:02.831Z,1012.11
2018-12-11T11:51:03.205Z,1012.10
2018-12-11T11:52:03.314Z,1012.09
2018-12-11T11:53:03.241Z,1012.09
2018-12-11T11:54:03.921Z,1012.09
2018-12-11T11:55:03.992Z,1012.09
2018-12-11T11:56:04.269Z,1012.10
2018-12-11T11:57:04.438Z,1012.09
2018-12-11T11:58:04.548Z,1012.11
2018-12-11T11:59:04.673Z,1012.11
2018-12-11T12:00:04.868Z,1012.09
2018-12-11T12:01:05.022Z,1012.08
2018-12-11T12:02:05.195Z,1012.06
2018-12-11T12:03:05.328Z,1012.08
2018-12-11T12:04:08.859Z,1012.09
2018-12-11T12:05:05.569Z,1012.09
2018-12-11T12:06:05.650Z,1012.10
2018-12-11T12:07:05.937Z,1012.11
2018-12-11T12:08:06.192Z,1012.11
2018-12-11T12:09:06.576Z,1012.13
2018-12-11T12:10:06.763Z,1012.15
2018-12-11T12:11:06.777Z,1012.17
2018-12-11T12:12:06.920Z,1012.16
2018-12-11T12:13:06.980Z,1012.16
2018-12-11T12:14:07.092Z,1012.17
2018-12-11T12:15:07.174Z,1012.14
2018-12-11T12:16:07.144Z,1012.12
2018-12-11T12:17:07.716Z,1012.11
2018-12-11T12:18:07.632Z,1012.11
2018-12-11T12:19:07.866Z,1012.13
2018-12-11T12:20:08.425Z,1012.16
2018-12-11T12:21:08.626Z,1012.16
2018-12-11T12:22:08.705Z,1012.18